createdAt,value
2018-05-01T00:01:15.582Z,9.70
2018-05-01T00:03:41.843Z,9.63
2018-05-01T00:06:08.206Z,9.77
2018-05-01T00:08:34.460Z,10.12
2018-05-01T00:11:00.723Z,10.03
2018-05-01T00:13:27.383Z,10.08
2018-05-01T00:15:53.686Z,10.42
2018-05-01T00:18:21.997Z,10.56
2018-05-01T00:20:48.311Z,10.56
2018-05-01T00:23:14.792Z,10.10
2018-05-01T00:25:41.124Z,9.56
2018-05-01T00:28:07.460Z,9.35
2018-05-01T00:30:33.758Z,9.70
2018-05-01T00:33:00.020Z,9.96
2018-05-01T00:35:26.304Z,9.92
2018-05-01T00:37:52.969Z,10.04
2018-05-01T00:40:19.235Z,10.12
2018-05-01T00:42:45.555Z,10.27
2018-05-01T00:45:14.727Z,10.22
2018-05-01T00:47:40.999Z,10.21
2018-05-01T00:50:07.353Z,10.16
2018-05-01T00:52:44.323Z,9.99
2018-05-01T00:55:11.705Z,9.97
2018-05-01T00:57:37.971Z,10.23
2018-05-01T01:00:04.387Z,10.38
2018-05-01T01:02:30.655Z,10.47
2018-05-01T01:04:56.919Z,10.53
2018-05-01T01:07:23.258Z,10.38
2018-05-01T01:09:49.527Z,10.21
2018-05-01T01:12:15.824Z,10.22
2018-05-01T01:14:42.457Z,10.17
2018-05-01T01:17:08.784Z,10.11
2018-05-01T01:19:35.059Z,9.86
2018-05-01T01:22:01.426Z,10.05
2018-05-01T01:24:27.690Z,10.24
2018-05-01T01:26:53.996Z,10.31
2018-05-01T01:29:20.294Z,10.42
2018-05-01T01:31:46.596Z,10.19
2018-05-01T01:34:12.882Z,9.92
2018-05-01T01:36:38.973Z,9.82
2018-05-01T01:39:04.996Z,9.52
2018-05-01T01:41:31.026Z,9.27
2018-05-01T01:43:57.220Z,8.81
2018-05-01T01:46:23.329Z,8.72
2018-05-01T01:48:49.302Z,8.80
2018-05-01T01:51:18.653Z,8.94
2018-05-01T01:53:50.990Z,8.90
2018-05-01T01:56:17.217Z,8.73
2018-05-01T01:58:43.248Z,8.81
2018-05-01T02:01:09.314Z,8.82
2018-05-01T02:03:35.642Z,9.01
2018-05-01T02:06:01.667Z,9.24
2018-05-01T02:08:27.674Z,9.43
2018-05-01T02:10:53.848Z,9.50
2018-05-01T02:13:19.859Z,9.29
2018-05-01T02:15:45.906Z,9.06
2018-05-01T02:18:11.921Z,9.00
2018-05-01T02:20:37.931Z,8.92
2018-05-01T02:23:04.055Z,8.86
2018-05-01T02:25:30.498Z,8.81
2018-05-01T02:27:56.502Z,8.65
2018-05-01T02:30:22.681Z,8.49
2018-05-01T02:32:48.684Z,8.80
2018-05-01T02:35:14.689Z,8.73
2018-05-01T02:37:55.645Z,8.73
2018-05-01T02:40:21.703Z,8.89
2018-05-01T02:42:47.770Z,8.96
2018-05-01T02:45:13.823Z,9.17
2018-05-01T02:47:39.947Z,9.13
2018-05-01T02:50:05.972Z,8.77
2018-05-01T02:52:31.988Z,8.92
2018-05-01T02:54:58.226Z,9.05
2018-05-01T02:57:24.255Z,9.24
2018-05-01T02:59:50.298Z,8.89
2018-05-01T03:02:16.469Z,8.64
2018-05-01T03:04:42.557Z,8.65
2018-05-01T03:07:08.581Z,8.58
2018-05-01T03:09:34.607Z,8.69
2018-05-01T03:12:00.711Z,8.94
2018-05-01T03:14:26.734Z,9.03
2018-05-01T03:16:52.827Z,9.18
2018-05-01T03:19:18.836Z,9.26
2018-05-01T03:21:44.858Z,9.32
2018-05-01T03:24:10.921Z,9.43
2018-05-01T03:26:36.946Z,9.44
2018-05-01T03:29:02.968Z,9.57
2018-05-01T03:31:32.180Z,9.56
2018-05-01T03:33:58.207Z,8.89
2018-05-01T03:36:24.226Z,8.61
2018-05-01T03:38:50.321Z,8.41
2018-05-01T03:41:16.336Z,8.39
2018-05-01T03:43:42.345Z,8.29
2018-05-01T03:46:08.411Z,8.15
2018-05-01T03:48:34.419Z,8.16
2018-05-01T03:51:00.522Z,8.17
2018-05-01T03:53:26.530Z,8.17
2018-05-01T03:55:52.808Z,8.52
2018-05-01T03:58:18.853Z,8.67
2018-05-01T04:00:44.876Z,8.80
2018-05-01T04:03:10.902Z,8.93
2018-05-01T04:05:40.293Z,9.04
2018-05-01T04:08:06.385Z,9.14
2018-05-01T04:10:32.399Z,8.96
2018-05-01T04:12:59.020Z,9.02
2018-05-01T04:15:25.112Z,9.25
2018-05-01T04:17:51.126Z,9.32
2018-05-01T04:20:17.133Z,9.67
2018-05-01T04:22:43.187Z,9.98
2018-05-01T04:25:09.223Z,10.24
2018-05-01T04:27:35.256Z,10.36
2018-05-01T04:30:01.405Z,10.37
2018-05-01T04:32:27.415Z,10.08
2018-05-01T04:34:53.438Z,9.75
2018-05-01T04:37:19.490Z,9.70
2018-05-01T04:39:45.524Z,9.78
2018-05-01T04:42:11.548Z,9.89
2018-05-01T04:44:37.805Z,9.92
2018-05-01T04:47:03.810Z,9.90
2018-05-01T04:49:29.918Z,9.74
2018-05-01T04:51:55.985Z,9.76
2018-05-01T04:54:21.994Z,10.25
2018-05-01T04:56:48.130Z,10.56
2018-05-01T04:59:14.155Z,10.82
2018-05-01T05:01:40.192Z,11.02
2018-05-01T05:04:06.251Z,11.36
2018-05-01T05:06:32.256Z,11.76
2018-05-01T05:08:58.283Z,12.01
2018-05-01T05:11:24.326Z,12.31
2018-05-01T05:13:50.375Z,12.62
2018-05-01T05:16:16.388Z,12.82
2018-05-01T05:18:42.570Z,13.14
2018-05-01T05:21:08.585Z,12.59
2018-05-01T05:23:34.664Z,12.75
2018-05-01T05:26:00.827Z,13.01
2018-05-01T05:28:26.831Z,13.00
2018-05-01T05:30:52.953Z,12.95
2018-05-01T05:33:18.954Z,12.88
2018-05-01T05:35:45.008Z,13.26
2018-05-01T05:38:14.556Z,13.75
2018-05-01T05:40:40.993Z,13.93
2018-05-01T05:43:07.061Z,14.20
2018-05-01T05:45:33.113Z,14.11
2018-05-01T05:47:59.129Z,14.03
2018-05-01T05:50:25.253Z,14.06
2018-05-01T05:52:51.352Z,14.33
2018-05-01T05:55:17.369Z,14.42
2018-05-01T05:57:43.390Z,14.76
2018-05-01T06:00:09.586Z,15.08
2018-05-01T06:02:35.620Z,15.19
2018-05-01T06:05:01.768Z,15.42
2018-05-01T06:07:27.908Z,15.58
2018-05-01T06:09:53.931Z,15.54
2018-05-01T06:12:19.991Z,15.58
2018-05-01T06:14:48.948Z,15.26
2018-05-01T06:17:14.963Z,15.31
2018-05-01T06:19:41.043Z,15.50
2018-05-01T06:22:07.125Z,15.70
2018-05-01T06:24:33.259Z,15.66
2018-05-01T06:26:59.274Z,15.75
2018-05-01T06:29:25.352Z,16.04
2018-05-01T06:31:51.493Z,16.60
2018-05-01T06:34:17.511Z,17.05
2018-05-01T06:36:43.538Z,17.31
2018-05-01T06:39:10.164Z,16.81
2018-05-01T06:41:36.185Z,16.89
2018-05-01T06:44:02.292Z,16.94
2018-05-01T06:46:28.318Z,17.13
2018-05-01T06:48:54.327Z,17.60
2018-05-01T06:51:20.473Z,18.06
2018-05-01T06:53:46.483Z,17.97
2018-05-01T06:56:12.635Z,18.18
2018-05-01T06:58:38.671Z,18.18
2018-05-01T07:01:04.701Z,17.88
2018-05-01T07:03:30.776Z,18.04
2018-05-01T07:05:56.798Z,18.25
2018-05-01T07:08:22.802Z,18.83
2018-05-01T07:10:48.954Z,19.40
2018-05-01T07:13:14.980Z,18.90
2018-05-01T07:15:40.990Z,18.90
2018-05-01T07:18:07.275Z,18.94
2018-05-01T07:20:33.309Z,18.94
2018-05-01T07:22:59.741Z,18.99
2018-05-01T07:25:25.759Z,19.14
2018-05-01T07:27:51.792Z,18.84
2018-05-01T07:30:17.868Z,19.11
2018-05-01T07:32:43.900Z,19.50
2018-05-01T07:35:09.926Z,19.55
2018-05-01T07:37:36.040Z,19.32
2018-05-01T07:40:02.049Z,19.67
2018-05-01T07:42:28.084Z,20.08
2018-05-01T07:44:54.420Z,20.56
2018-05-01T07:47:20.478Z,20.43
2018-05-01T07:49:46.607Z,20.31
2018-05-01T07:52:12.675Z,20.84
2018-05-01T07:54:38.739Z,20.85
2018-05-01T07:57:04.798Z,21.14
2018-05-01T07:59:30.808Z,20.97
2018-05-01T08:01:56.834Z,21.13
2018-05-01T08:04:22.900Z,21.33
2018-05-01T08:06:48.954Z,21.35
2018-05-01T08:09:14.972Z,21.18
2018-05-01T08:11:44.799Z,21.23
2018-05-01T08:14:10.815Z,21.38
2018-05-01T08:16:36.830Z,21.59
2018-05-01T08:19:02.884Z,21.64
2018-05-01T08:21:28.913Z,21.40
2018-05-01T08:23:57.780Z,21.98
2018-05-01T08:26:23.931Z,21.83
2018-05-01T08:28:49.957Z,21.89
2018-05-01T08:31:19.858Z,22.50
2018-05-01T08:33:45.897Z,22.58
2018-05-01T08:36:11.926Z,22.82
2018-05-01T08:38:41.008Z,22.81
2018-05-01T08:41:07.035Z,22.62
2018-05-01T08:43:33.120Z,23.02
2018-05-01T08:45:59.141Z,22.74
2018-05-01T08:48:25.150Z,22.40
2018-05-01T08:50:51.344Z,22.58
2018-05-01T08:53:17.359Z,23.19
2018-05-01T08:55:43.658Z,23.01
2018-05-01T08:58:09.682Z,23.27
2018-05-01T09:00:35.695Z,23.44
2018-05-01T09:03:01.766Z,23.85
2018-05-01T09:05:27.781Z,23.50
2018-05-01T09:07:53.805Z,23.48
2018-05-01T09:10:19.883Z,23.72
2018-05-01T09:12:45.964Z,24.16
2018-05-01T09:15:11.980Z,24.46
2018-05-01T09:17:38.130Z,24.06
2018-05-01T09:20:04.183Z,24.07
2018-05-01T09:22:30.291Z,24.24
2018-05-01T09:24:56.355Z,24.65
2018-05-01T09:27:22.409Z,24.76
2018-05-01T09:29:48.473Z,25.07
2018-05-01T09:32:14.525Z,24.83
2018-05-01T09:34:40.550Z,24.87
2018-05-01T09:37:06.607Z,24.73
2018-05-01T09:39:32.696Z,24.73
2018-05-01T09:41:58.770Z,25.31
2018-05-01T09:44:24.828Z,25.24
2018-05-01T09:46:50.851Z,24.53
2018-05-01T09:49:16.962Z,25.34
2018-05-01T09:51:42.992Z,25.82
2018-05-01T09:54:09.248Z,26.21
2018-05-01T09:56:35.613Z,26.43
2018-05-01T09:59:01.871Z,25.58
2018-05-01T10:01:28.143Z,25.80
2018-05-01T10:03:54.565Z,25.94
2018-05-01T10:06:20.896Z,26.82
2018-05-01T10:08:47.178Z,26.40
2018-05-01T10:11:13.551Z,27.04
2018-05-01T10:13:39.890Z,26.85
2018-05-01T10:16:06.173Z,27.60
2018-05-01T10:18:32.562Z,27.38
2018-05-01T10:20:58.828Z,28.03
2018-05-01T10:23:25.222Z,27.77
2018-05-01T10:25:51.579Z,27.88
2018-05-01T10:28:17.905Z,28.34
2018-05-01T10:30:44.175Z,28.49
2018-05-01T10:33:10.529Z,28.90
2018-05-01T10:35:37.928Z,28.71
2018-05-01T10:38:05.233Z,28.50
2018-05-01T10:40:31.506Z,28.54
2018-05-01T10:42:57.862Z,28.62
2018-05-01T10:45:24.126Z,28.33
2018-05-01T10:47:50.398Z,28.56
2018-05-01T10:50:16.702Z,28.87
2018-05-01T10:52:42.966Z,29.31
2018-05-01T10:55:09.314Z,29.75
2018-05-01T10:57:35.704Z,30.06
2018-05-01T11:00:02.012Z,29.45
2018-05-01T11:02:32.190Z,29.85
2018-05-01T11:04:58.478Z,29.72
2018-05-01T11:07:24.848Z,29.55
2018-05-01T11:09:51.127Z,29.65
2018-05-01T11:12:17.452Z,29.91
2018-05-01T11:14:43.803Z,29.78
2018-05-01T11:17:10.076Z,30.22
2018-05-01T11:19:36.375Z,29.92
2018-05-01T11:22:02.793Z,29.94
2018-05-01T11:24:29.339Z,29.76
2018-05-01T11:26:55.679Z,29.79
2018-05-01T11:29:22.027Z,29.50
2018-05-01T11:31:48.326Z,30.03
2018-05-01T11:34:14.687Z,30.42
2018-05-01T11:36:40.997Z,30.16
2018-05-01T11:39:07.281Z,30.05
2018-05-01T11:41:33.609Z,30.18
2018-05-01T11:44:02.554Z,30.22
2018-05-01T11:46:28.856Z,30.14
2018-05-01T11:48:55.207Z,29.92
2018-05-01T11:51:21.483Z,30.42
2018-05-01T11:53:47.793Z,29.02
2018-05-01T11:56:14.266Z,28.15
2018-05-01T11:58:40.567Z,28.86
2018-05-01T12:01:06.922Z,28.18
2018-05-01T12:03:33.331Z,28.35
2018-05-01T12:05:59.933Z,29.05
2018-05-01T12:08:26.248Z,29.55
2018-05-01T12:10:52.593Z,29.55
2018-05-01T12:13:21.447Z,29.43
2018-05-01T12:15:47.830Z,29.17
2018-05-01T12:18:14.141Z,29.42
2018-05-01T12:20:40.423Z,28.91
2018-05-01T12:23:06.792Z,28.29
2018-05-01T12:25:33.112Z,28.01
2018-05-01T12:27:59.390Z,28.95
2018-05-01T12:30:25.996Z,29.24
2018-05-01T12:32:52.274Z,29.10
2018-05-01T12:35:18.548Z,29.69
2018-05-01T12:37:44.881Z,29.56
2018-05-01T12:40:17.295Z,29.72
2018-05-01T12:42:44.429Z,28.97
2018-05-01T12:45:10.839Z,29.49
2018-05-01T12:47:37.113Z,29.76
2018-05-01T12:50:03.454Z,30.49
2018-05-01T12:52:29.825Z,30.79
2018-05-01T12:54:56.273Z,31.19
2018-05-01T12:57:22.558Z,30.70
2018-05-01T12:59:48.827Z,30.05
2018-05-01T13:02:15.266Z,28.94
2018-05-01T13:04:41.599Z,28.22
2018-05-01T13:07:07.968Z,28.27
2018-05-01T13:09:37.480Z,27.70
2018-05-01T13:12:03.760Z,28.02
2018-05-01T13:14:30.160Z,28.64
2018-05-01T13:16:56.444Z,28.46
2018-05-01T13:19:22.710Z,27.80
2018-05-01T13:21:49.143Z,28.77
2018-05-01T13:24:18.484Z,28.66
2018-05-01T13:26:44.768Z,28.85
2018-05-01T13:29:11.088Z,29.52
2018-05-01T13:31:40.608Z,30.20
2018-05-01T13:34:06.890Z,30.29
2018-05-01T13:36:33.276Z,30.51
2018-05-01T13:38:59.938Z,30.12
2018-05-01T13:41:26.272Z,29.90
2018-05-01T13:43:52.605Z,29.60
2018-05-01T13:46:18.895Z,30.07
2018-05-01T13:48:45.306Z,29.91
2018-05-01T13:51:11.588Z,29.45
2018-05-01T13:53:38.256Z,28.92
2018-05-01T13:56:04.583Z,28.34
2018-05-01T13:58:30.857Z,27.85
2018-05-01T14:00:57.148Z,27.70
2018-05-01T14:03:23.941Z,27.60
2018-05-01T14:05:50.244Z,27.58
2018-05-01T14:08:16.565Z,27.40
2018-05-01T14:10:42.842Z,27.45
2018-05-01T14:13:09.182Z,27.74
2018-05-01T14:15:35.566Z,27.99
2018-05-01T14:18:01.829Z,28.17
2018-05-01T14:20:28.112Z,28.29
2018-05-01T14:22:54.488Z,28.55
2018-05-01T14:25:20.822Z,28.53
2018-05-01T14:27:47.054Z,29.04
2018-05-01T14:30:13.407Z,29.03
2018-05-01T14:32:39.683Z,28.78
2018-05-01T14:35:05.957Z,28.60
2018-05-01T14:37:32.323Z,27.81
2018-05-01T14:39:58.585Z,27.42
2018-05-01T14:42:24.851Z,27.09
2018-05-01T14:44:51.353Z,26.68
2018-05-01T14:47:17.660Z,26.43
2018-05-01T14:49:43.948Z,26.36
2018-05-01T14:52:10.230Z,26.20
2018-05-01T14:54:39.503Z,26.04
2018-05-01T14:57:05.891Z,26.01
2018-05-01T14:59:32.199Z,25.90
2018-05-01T15:01:58.491Z,25.66
2018-05-01T15:04:24.916Z,25.47
2018-05-01T15:06:51.323Z,25.30
2018-05-01T15:09:17.601Z,25.12
2018-05-01T15:11:43.880Z,25.07
2018-05-01T15:14:10.303Z,24.48
2018-05-01T15:16:36.660Z,24.34
2018-05-01T15:19:02.975Z,24.27
2018-05-01T15:21:32.486Z,24.46
2018-05-01T15:23:58.769Z,24.31
2018-05-01T15:26:25.372Z,24.19
2018-05-01T15:28:51.694Z,24.34
2018-05-01T15:31:17.969Z,24.34
2018-05-01T15:33:44.343Z,24.31
2018-05-01T15:36:10.599Z,24.22
2018-05-01T15:38:36.866Z,24.00
2018-05-01T15:41:03.250Z,23.98
2018-05-01T15:43:29.571Z,23.49
2018-05-01T15:45:55.953Z,22.68
2018-05-01T15:48:22.287Z,22.27
2018-05-01T15:50:48.546Z,22.37
2018-05-01T15:53:14.827Z,22.04
2018-05-01T15:55:41.327Z,21.93
2018-05-01T15:58:07.945Z,21.90
2018-05-01T16:00:34.230Z,21.89
2018-05-01T16:03:00.556Z,21.97
2018-05-01T16:05:26.839Z,21.61
2018-05-01T16:07:53.145Z,21.54
2018-05-01T16:10:19.475Z,21.48
2018-05-01T16:12:45.747Z,21.22
2018-05-01T16:15:12.065Z,21.07
2018-05-01T16:17:38.700Z,21.18
2018-05-01T16:20:05.106Z,20.98
2018-05-01T16:22:31.380Z,20.83
2018-05-01T16:24:57.654Z,20.63
2018-05-01T16:27:24.570Z,20.37
2018-05-01T16:29:50.904Z,20.41
2018-05-01T16:32:17.189Z,20.35
2018-05-01T16:34:43.550Z,20.23
2018-05-01T16:37:09.835Z,20.15
2018-05-01T16:39:36.110Z,20.12
2018-05-01T16:42:02.544Z,19.93
2018-05-01T16:44:28.816Z,19.71
2018-05-01T16:46:55.159Z,19.58
2018-05-01T16:49:21.447Z,19.57
2018-05-01T16:51:47.706Z,19.73
2018-05-01T16:54:14.053Z,19.84
2018-05-01T16:56:40.987Z,19.87
2018-05-01T16:59:07.480Z,19.85
2018-05-01T17:01:33.805Z,19.92
2018-05-01T17:04:00.106Z,19.94
2018-05-01T17:06:26.427Z,19.98
2018-05-01T17:08:53.909Z,19.91
2018-05-01T17:11:20.171Z,19.85
2018-05-01T17:13:46.429Z,19.90
2018-05-01T17:16:12.776Z,19.89
2018-05-01T17:18:39.107Z,19.86
2018-05-01T17:21:05.381Z,19.83
2018-05-01T17:23:31.753Z,19.71
2018-05-01T17:25:58.020Z,19.56
2018-05-01T17:28:24.679Z,19.27
2018-05-01T17:30:51.113Z,18.98
2018-05-01T17:33:17.445Z,18.99
2018-05-01T17:35:43.807Z,19.16
2018-05-01T17:38:10.243Z,19.21
2018-05-01T17:40:36.531Z,19.28
2018-05-01T17:43:02.983Z,19.24
2018-05-01T17:45:29.345Z,19.14
2018-05-01T17:47:55.614Z,18.81
2018-05-01T17:50:22.054Z,18.94
2018-05-01T17:52:48.428Z,18.92
2018-05-01T17:55:14.972Z,18.82
2018-05-01T17:57:41.792Z,18.68
2018-05-01T18:00:08.350Z,18.78
2018-05-01T18:02:37.653Z,18.70
2018-05-01T18:05:03.950Z,18.47
2018-05-01T18:07:30.228Z,18.57
2018-05-01T18:09:59.772Z,18.46
2018-05-01T18:12:26.049Z,18.38
2018-05-01T18:14:52.519Z,18.35
2018-05-01T18:17:18.904Z,18.31
2018-05-01T18:19:45.175Z,18.27
2018-05-01T18:22:11.455Z,18.26
2018-05-01T18:24:40.784Z,18.15
2018-05-01T18:30:02.003Z,17.90
2018-05-01T18:32:28.349Z,17.74
2018-05-01T18:34:54.691Z,17.71
2018-05-01T18:37:20.966Z,17.77
2018-05-01T18:39:47.287Z,17.69
2018-05-01T18:42:13.573Z,17.41
2018-05-01T18:44:41.816Z,16.49
2018-05-01T18:47:08.200Z,16.02
2018-05-01T18:49:34.467Z,15.97
2018-05-01T18:52:00.766Z,15.96
2018-05-01T18:54:27.418Z,15.89
2018-05-01T18:56:53.779Z,15.93
2018-05-01T18:59:20.050Z,15.89
2018-05-01T19:01:46.344Z,15.74
2018-05-01T19:04:13.567Z,15.75
2018-05-01T19:06:39.867Z,15.83
2018-05-01T19:09:06.164Z,15.96
2018-05-01T19:11:32.520Z,16.07
2018-05-01T19:13:58.896Z,16.23
2018-05-01T19:16:25.227Z,16.26
2018-05-01T19:18:51.585Z,16.37
2018-05-01T19:21:18.263Z,16.43
2018-05-01T19:23:44.549Z,16.45
2018-05-01T19:26:10.939Z,16.28
2018-05-01T19:28:37.276Z,16.24
2018-05-01T19:31:03.542Z,15.95
2018-05-01T19:33:29.914Z,15.17
2018-05-01T19:35:56.203Z,14.80
2018-05-01T19:38:22.479Z,14.67
2018-05-01T19:40:48.839Z,14.63
2018-05-01T19:43:15.149Z,14.57
2018-05-01T19:45:46.430Z,14.55
2018-05-01T19:48:12.815Z,14.67
2018-05-01T19:50:39.163Z,14.76
2018-05-01T19:53:05.642Z,14.99
2018-05-01T19:55:31.942Z,15.14
2018-05-01T19:57:58.264Z,15.30
2018-05-01T20:00:24.619Z,15.10
2018-05-01T20:02:50.934Z,14.99
2018-05-01T20:05:17.230Z,14.72
2018-05-01T20:07:43.675Z,14.59
2018-05-01T20:10:10.051Z,14.26
2018-05-01T20:12:36.331Z,14.12
2018-05-01T20:15:02.651Z,13.99
2018-05-01T20:17:28.942Z,13.81
2018-05-01T20:19:55.344Z,13.70
2018-05-01T20:22:21.601Z,13.66
2018-05-01T20:24:48.022Z,13.48
2018-05-01T20:27:14.287Z,13.42
2018-05-01T20:29:40.821Z,13.36
2018-05-01T20:32:07.114Z,13.23
2018-05-01T20:34:33.556Z,13.30
2018-05-01T20:36:59.902Z,13.29
2018-05-01T20:39:26.251Z,13.26
2018-05-01T20:41:52.632Z,13.18
2018-05-01T20:44:18.949Z,13.13
2018-05-01T20:46:45.531Z,13.25
2018-05-01T20:49:12.362Z,13.40
2018-05-01T20:51:38.966Z,13.40
2018-05-01T20:54:05.359Z,13.67
2018-05-01T20:56:31.712Z,13.88
2018-05-01T20:58:58.854Z,13.99
2018-05-01T21:01:25.128Z,13.32
2018-05-01T21:03:51.423Z,12.96
2018-05-01T21:06:17.853Z,12.70
2018-05-01T21:08:44.201Z,12.79
2018-05-01T21:11:10.597Z,12.81
2018-05-01T21:13:36.872Z,12.80
2018-05-01T21:16:03.183Z,12.64
2018-05-01T21:18:29.532Z,12.30
2018-05-01T21:20:55.803Z,12.25
2018-05-01T21:23:22.123Z,12.32
2018-05-01T21:25:48.484Z,12.24
2018-05-01T21:28:15.099Z,12.11
2018-05-01T21:30:41.585Z,11.98
2018-05-01T21:33:07.940Z,12.22
2018-05-01T21:35:34.212Z,12.58
2018-05-01T21:38:00.485Z,12.69
2018-05-01T21:40:26.819Z,12.83
2018-05-01T21:42:53.146Z,12.93
2018-05-01T21:45:19.429Z,12.80
2018-05-01T21:47:45.819Z,12.67
2018-05-01T21:50:12.137Z,12.72
2018-05-01T21:52:38.425Z,12.41
2018-05-01T21:55:04.797Z,12.12
2018-05-01T21:57:31.209Z,12.11
2018-05-01T21:59:57.480Z,12.30
2018-05-01T22:02:23.752Z,12.25
2018-05-01T22:04:50.278Z,12.41
2018-05-01T22:07:16.599Z,12.38
2018-05-01T22:09:42.988Z,12.32
2018-05-01T22:12:09.334Z,12.29
2018-05-01T22:14:35.642Z,11.76
2018-05-01T22:17:01.987Z,11.74
2018-05-01T22:19:28.266Z,11.58
2018-05-01T22:21:54.667Z,11.74
2018-05-01T22:24:21.060Z,11.88
2018-05-01T22:26:47.406Z,11.95
2018-05-01T22:29:13.679Z,11.64
2018-05-01T22:31:39.998Z,11.48
2018-05-01T22:34:06.326Z,11.56
2018-05-01T22:36:32.610Z,11.69
2018-05-01T22:38:58.883Z,11.74
2018-05-01T22:41:26.973Z,11.77
2018-05-01T22:43:53.238Z,11.98
2018-05-01T22:46:19.489Z,12.17
2018-05-01T22:48:46.010Z,12.22
2018-05-01T22:51:12.274Z,12.08
2018-05-01T22:53:38.557Z,11.94
2018-05-01T22:56:04.892Z,11.48
2018-05-01T22:58:31.233Z,11.09
2018-05-01T23:00:57.599Z,10.90
2018-05-01T23:03:23.861Z,10.55
2018-05-01T23:05:50.153Z,10.41
2018-05-01T23:08:16.543Z,10.68
2018-05-01T23:10:42.802Z,10.87
2018-05-01T23:13:09.128Z,10.88
2018-05-01T23:15:35.397Z,10.88
2018-05-01T23:18:01.733Z,10.99
2018-05-01T23:20:30.884Z,11.22
2018-05-01T23:22:57.755Z,11.14
2018-05-01T23:25:24.027Z,10.93
2018-05-01T23:27:50.334Z,11.21
2018-05-01T23:30:16.632Z,11.40
2018-05-01T23:32:42.901Z,11.55
2018-05-01T23:35:09.280Z,11.63
2018-05-01T23:37:35.675Z,11.54
2018-05-01T23:40:01.961Z,11.30
2018-05-01T23:42:28.231Z,10.62
2018-05-01T23:44:54.625Z,10.51
2018-05-01T23:47:20.895Z,10.26
2018-05-01T23:49:47.163Z,10.03
2018-05-01T23:52:16.821Z,10.26
2018-05-01T23:54:43.097Z,10.46
2018-05-01T23:57:09.383Z,10.54
2018-05-01T23:59:38.884Z,10.37
